Hovedside
METAR-TAF:

METAR-TAF

Lufthavner :

Bocas del Toro, Panama

breddegrad: 09-21N, lengdegrad: 082-15W, høyde over havet: 3 m

Gjeldene værobservasjon

Denne rapporten ble laget for 11 timer og 53 minutter siden, klokken 22:00 UTC
Vind 9 kt fra Vest
Temperatur 25°C
Luftfuktighet 94%
Trykk 1015 hPa
Sikt 10 km eller mer
Få skyer i en høyde av 2000 ft
Brutte skyer i en høyde av 8000 ft

METAR: MPBO 252200Z 28009KT 9999 FEW020 BKN080 25/24 Q1015

Tid: 04:53 (09:53 UTC)


TAF: fraværende

Værobservasjoner og værvarsel for over 4000 flyplasser (METAR- og TAF-rapporter).

Tilgjengelige stasjoner er representert av de røde og gule prikkene på kartet.

Hold musepekeren over prikken for å se navnet på stasjonen.

Klikk så for å se værobservasjoner og -varsler.

For å forandre kartet kan du klikke på den grønne knappen med svart kryss for å zoome inn, på den grønne knappen med strek for å zoome ut, eller på de grønne pilene for å se tilstøtende kart.


METAR-TAF: